Time;durP1;ratioP1;P1;durP2;ratioP2;P2;SDS_P1;SDS_P2;PMS_P1;PMS_P2;Temp;Humidity;BMP_temperature;BMP_pressure;BME280_temperature;BME280_humidity;BME280_pressure;Samples;Min_cycle;Max_cycle;Signal;HPM_P1;HPM_P2
2022/03/12 00:01:06;;;;;;;11.68;6.15;;;5.60;81.00;;;;;;4978877;28;20045;-88
2022/03/12 00:03:32;;;;;;;26.23;6.38;;;6.50;81.10;;;;;;4978270;28;20132;-87
2022/03/12 00:06:00;;;;;;;13.38;6.05;;;5.90;80.50;;;;;;4994828;28;20075;-87
2022/03/12 00:08:40;;;;;;;11.18;6.20;;;5.40;80.20;;;;;;4978338;28;20045;-88
2022/03/12 00:11:06;;;;;;;10.60;5.78;;;5.30;79.80;;;;;;4977307;28;20046;-87
2022/03/12 00:13:32;;;;;;;13.30;6.13;;;5.40;79.60;;;;;;4977841;28;20050;-87
2022/03/12 00:15:58;;;;;;;19.92;6.10;;;6.00;80.00;;;;;;4993314;28;20161;-86
2022/03/12 00:18:30;;;;;;;14.20;6.00;;;5.40;79.90;;;;;;4977400;28;20129;-86
2022/03/12 00:21:01;;;;;;;12.55;6.10;;;5.90;80.30;;;;;;4977851;28;20045;-88
2022/03/12 00:23:30;;;;;;;12.23;6.20;;;5.30;80.70;;;;;;4978201;28;20089;-88
2022/03/12 00:25:59;;;;;;;11.77;6.93;;;5.30;80.30;;;;;;4978568;28;20042;-88
2022/03/12 00:28:25;;;;;;;11.90;6.13;;;5.30;80.20;;;;;;4978672;28;20050;-88
2022/03/12 00:30:54;;;;;;;11.70;6.82;;;5.30;80.40;;;;;;4978499;28;20405;-88
2022/03/12 00:33:29;;;;;;;12.90;7.32;;;5.30;80.50;;;;;;4977490;28;20088;-88
2022/03/12 00:35:55;;;;;;;10.98;6.03;;;5.30;80.60;;;;;;4993913;28;20053;-86
2022/03/12 00:38:22;;;;;;;13.25;6.28;;;5.30;80.30;;;;;;4976429;28;20038;-87
2022/03/12 00:40:49;;;;;;;16.27;7.03;;;5.20;80.30;;;;;;4976281;28;20140;-87
2022/03/12 00:43:15;;;;;;;10.90;6.47;;;5.20;80.30;;;;;;4976336;28;20061;-87
2022/03/12 00:45:41;;;;;;;10.75;6.40;;;5.80;80.70;;;;;;4992597;28;20050;-86
2022/03/12 00:48:07;;;;;;;12.57;6.50;;;6.20;81.10;;;;;;4992696;28;20371;-86
2022/03/12 00:50:33;;;;;;;10.95;6.32;;;5.20;80.60;;;;;;4976763;28;20053;-86
2022/03/12 00:52:59;;;;;;;16.48;6.80;;;5.20;81.00;;;;;;4975402;28;20104;-86
2022/03/12 00:55:25;;;;;;;19.52;8.00;;;5.80;81.70;;;;;;5008880;28;20061;-88
2022/03/12 00:57:51;;;;;;;13.05;7.60;;;5.20;81.60;;;;;;4983053;28;20401;-87
2022/03/12 01:00:19;;;;;;;14.30;6.60;;;5.10;81.80;;;;;;4994358;28;20049;-86
2022/03/12 01:02:45;;;;;;;12.00;6.78;;;5.10;81.80;;;;;;5011844;28;20076;-86
2022/03/12 01:05:16;;;;;;;17.77;6.80;;;5.10;81.90;;;;;;4995338;28;20069;-86
2022/03/12 01:07:42;;;;;;;13.45;6.70;;;5.10;81.90;;;;;;4995301;28;20145;-87
2022/03/12 01:10:09;;;;;;;13.40;7.07;;;5.10;82.00;;;;;;5011108;28;20049;-87
2022/03/12 01:12:35;;;;;;;13.05;5.88;;;5.10;82.30;;;;;;5011037;28;20030;-85
2022/03/12 01:15:01;;;;;;;16.45;8.25;;;5.10;82.30;;;;;;4994906;28;20508;-86
2022/03/12 01:17:34;;;;;;;12.68;6.20;;;5.10;82.50;;;;;;4996145;28;20058;-86
2022/03/12 01:20:00;;;;;;;16.05;6.47;;;5.50;83.00;;;;;;5011086;28;20056;-86
2022/03/12 01:22:32;;;;;;;12.50;6.45;;;5.00;82.70;;;;;;5011520;28;20104;-87
2022/03/12 01:24:58;;;;;;;11.98;6.65;;;5.00;82.70;;;;;;5012138;28;20045;-87
2022/03/12 01:27:23;;;;;;;12.68;6.10;;;5.00;82.90;;;;;;4982708;28;20053;-87
2022/03/12 01:29:49;;;;;;;13.00;7.05;;;5.10;83.30;;;;;;4992762;28;20041;-87
2022/03/12 01:32:15;;;;;;;15.60;7.25;;;5.00;83.30;;;;;;4975854;28;20042;-86
2022/03/12 01:34:41;;;;;;;13.88;7.75;;;5.00;83.20;;;;;;4991532;28;20049;-86
2022/03/12 01:37:08;;;;;;;13.52;6.82;;;5.00;83.30;;;;;;4975229;28;20073;-87
2022/03/12 01:39:37;;;;;;;12.35;7.32;;;5.00;83.40;;;;;;4976292;28;20049;-87
2022/03/12 01:42:07;;;;;;;19.48;7.65;;;5.30;83.60;;;;;;4989950;28;20045;-86
2022/03/12 01:44:33;;;;;;;14.25;6.72;;;5.00;83.30;;;;;;4976184;28;20537;-86
2022/03/12 01:46:58;;;;;;;12.63;7.68;;;5.00;83.30;;;;;;4991930;28;20129;-86
2022/03/12 01:49:24;;;;;;;12.95;7.25;;;5.00;83.40;;;;;;4990876;28;20042;-87
2022/03/12 01:51:52;;;;;;;14.02;7.25;;;5.00;83.30;;;;;;4991499;28;20168;-87
2022/03/12 01:54:20;;;;;;;14.90;7.32;;;5.00;83.50;;;;;;4975488;28;20064;-86
2022/03/12 01:56:46;;;;;;;15.65;7.22;;;5.00;83.50;;;;;;4974479;28;20057;-87
2022/03/12 01:59:12;;;;;;;11.45;7.28;;;5.00;83.90;;;;;;4990713;28;20104;-87
2022/03/12 02:01:38;;;;;;;15.57;7.05;;;5.40;83.90;;;;;;4974980;28;20042;-87
2022/03/12 02:04:07;;;;;;;16.75;7.13;;;5.00;83.60;;;;;;4974962;28;20561;-87
2022/03/12 02:06:34;;;;;;;17.92;7.35;;;5.00;83.60;;;;;;4975434;28;20132;-87
2022/03/12 02:09:00;;;;;;;11.50;7.03;;;5.00;83.40;;;;;;5006400;28;20085;-86
2022/03/12 02:11:28;;;;;;;13.13;6.95;;;5.10;83.70;;;;;;4991615;28;20077;-87
2022/03/12 02:14:01;;;;;;;11.13;6.78;;;6.10;84.60;;;;;;4975353;28;20053;-88
2022/03/12 02:16:29;;;;;;;12.70;6.63;;;5.00;84.00;;;;;;4976176;28;20524;-89
2022/03/12 02:18:55;;;;;;;15.73;7.18;;;5.00;83.70;;;;;;4977092;28;20057;-89
2022/03/12 02:21:34;;;;;;;12.38;7.18;;;5.00;83.60;;;;;;4993011;28;20045;-89
2022/03/12 02:24:02;;;;;;;16.73;6.95;;;5.00;83.80;;;;;;4977147;28;20187;-89
2022/03/12 02:26:28;;;;;;;15.98;7.00;;;5.00;83.90;;;;;;4992817;28;20046;-89
2022/03/12 02:28:53;;;;;;;15.70;7.53;;;5.00;84.20;;;;;;4992082;28;20049;-88
2022/03/12 02:31:23;;;;;;;12.55;6.57;;;5.00;84.30;;;;;;4976096;28;20473;-86
2022/03/12 02:33:48;;;;;;;10.77;6.70;;;5.00;84.50;;;;;;4991481;28;20033;-86
2022/03/12 02:36:18;;;;;;;13.48;6.60;;;5.00;84.50;;;;;;4975335;28;20549;-86
2022/03/12 02:38:47;;;;;;;14.18;7.60;;;5.00;84.50;;;;;;4992188;28;20071;-89
2022/03/12 02:41:15;;;;;;;19.38;7.90;;;5.00;84.70;;;;;;4976152;28;20077;-88
2022/03/12 02:43:43;;;;;;;14.05;6.97;;;5.00;84.80;;;;;;4993074;28;20066;-88
2022/03/12 02:46:10;;;;;;;9.90;6.65;;;5.00;85.40;;;;;;4992880;28;20042;-88
2022/03/12 02:48:37;;;;;;;15.10;7.00;;;4.90;85.40;;;;;;4976758;28;20482;-90
2022/03/12 02:51:04;;;;;;;11.70;6.60;;;4.90;85.30;;;;;;4976427;28;20046;-88
2022/03/12 02:53:30;;;;;;;12.82;6.78;;;5.00;85.20;;;;;;4976736;28;20056;-87
2022/03/12 02:55:56;;;;;;;16.13;6.85;;;4.90;85.00;;;;;;4992846;28;20037;-88
2022/03/12 02:58:21;;;;;;;15.13;6.63;;;5.00;85.00;;;;;;4975964;28;20061;-87
2022/03/12 03:00:47;;;;;;;12.20;6.80;;;4.90;84.80;;;;;;4992427;28;20409;-88
2022/03/12 03:03:13;;;;;;;10.35;6.22;;;4.90;85.10;;;;;;4975549;28;20042;-88
2022/03/12 03:05:46;;;;;;;11.30;6.35;;;4.90;85.10;;;;;;4992121;28;20478;-90
2022/03/12 03:08:20;;;;;;;12.57;7.07;;;4.90;85.00;;;;;;4975958;28;20038;-88
2022/03/12 03:10:50;;;;;;;15.13;7.28;;;4.90;85.00;;;;;;4976196;28;20069;-88
2022/03/12 03:13:17;;;;;;;11.88;6.40;;;4.90;84.80;;;;;;5008391;28;20042;-88
2022/03/12 03:15:46;;;;;;;12.25;6.47;;;4.90;84.90;;;;;;4992187;28;20053;-88
2022/03/12 03:18:16;;;;;;;13.27;6.15;;;4.90;84.90;;;;;;4976285;28;20141;-88
2022/03/12 03:20:44;;;;;;;16.70;6.60;;;4.90;85.20;;;;;;4995773;28;20046;-88
2022/03/12 03:23:10;;;;;;;15.10;6.90;;;4.90;85.10;;;;;;4979196;28;20121;-88
2022/03/12 03:25:36;;;;;;;11.90;6.13;;;4.90;84.90;;;;;;4979100;28;20458;-86
2022/03/12 03:28:03;;;;;;;10.68;6.50;;;4.90;85.10;;;;;;4978112;28;20342;-88
2022/03/12 03:30:34;;;;;;;12.05;6.38;;;4.90;85.30;;;;;;4978150;28;20108;-87
2022/03/12 03:33:01;;;;;;;12.82;7.18;;;4.90;85.40;;;;;;4977912;28;20057;-89
2022/03/12 03:35:27;;;;;;;12.75;6.63;;;4.90;85.40;;;;;;4994230;28;20049;-87
2022/03/12 03:37:53;;;;;;;10.45;6.57;;;5.90;86.10;;;;;;4994572;28;20041;-87
2022/03/12 03:40:19;;;;;;;14.07;6.90;;;6.00;86.50;;;;;;4977485;28;20045;-88
2022/03/12 03:42:44;;;;;;;13.27;6.65;;;4.80;86.10;;;;;;4977506;28;20498;-87
2022/03/12 03:45:10;;;;;;;14.57;6.63;;;4.80;86.40;;;;;;4978151;28;20054;-87
2022/03/12 03:47:35;;;;;;;15.10;6.18;;;5.30;87.30;;;;;;4977653;28;20486;-87
2022/03/12 03:50:01;;;;;;;15.50;6.70;;;4.80;86.60;;;;;;4978134;28;20054;-88
2022/03/12 03:52:27;;;;;;;10.27;6.60;;;4.80;86.70;;;;;;4978741;28;20091;-87
2022/03/12 03:54:53;;;;;;;14.05;7.15;;;4.80;86.60;;;;;;4993883;28;20041;-88
2022/03/12 03:57:19;;;;;;;12.02;7.00;;;4.70;86.90;;;;;;4980477;28;20064;-87
2022/03/12 03:59:45;;;;;;;11.00;6.93;;;4.70;87.00;;;;;;5013667;28;20049;-87
2022/03/12 04:02:11;;;;;;;11.77;6.63;;;4.70;87.10;;;;;;5012648;28;20460;-87
2022/03/12 04:04:38;;;;;;;14.43;6.97;;;4.70;87.00;;;;;;4998000;28;20046;-87
2022/03/12 04:07:05;;;;;;;12.63;6.82;;;4.70;87.10;;;;;;4997245;28;20084;-87
2022/03/12 04:09:31;;;;;;;13.65;6.60;;;4.70;87.10;;;;;;5013705;28;20050;-87
2022/03/12 04:11:56;;;;;;;15.90;6.75;;;4.70;87.50;;;;;;5013023;28;20041;-87
2022/03/12 04:14:23;;;;;;;21.77;7.32;;;4.60;87.60;;;;;;4995745;28;20110;-85
2022/03/12 04:16:48;;;;;;;16.50;7.68;;;4.50;87.80;;;;;;5011294;28;20088;-87
2022/03/12 04:19:14;;;;;;;11.68;6.88;;;4.60;88.00;;;;;;4996026;28;20042;-87
2022/03/12 04:21:40;;;;;;;13.45;6.10;;;4.50;88.30;;;;;;4997277;28;20073;-87
2022/03/12 04:24:06;;;;;;;10.15;6.47;;;4.50;88.60;;;;;;5012351;28;20049;-87
2022/03/12 04:26:35;;;;;;;9.77;6.25;;;4.50;88.70;;;;;;5013320;28;20095;-88
2022/03/12 04:29:04;;;;;;;12.55;6.75;;;4.40;88.70;;;;;;4996242;28;20400;-87
2022/03/12 04:31:31;;;;;;;17.15;6.95;;;4.40;88.90;;;;;;5012012;28;20049;-87
2022/03/12 04:33:57;;;;;;;13.73;6.80;;;4.40;89.00;;;;;;5012055;28;20075;-87
2022/03/12 04:36:23;;;;;;;13.32;6.68;;;5.40;89.80;;;;;;4994893;28;20052;-85
2022/03/12 04:38:49;;;;;;;10.68;6.82;;;4.30;89.60;;;;;;5012047;28;20037;-85
2022/03/12 04:41:16;;;;;;;9.93;6.88;;;4.30;89.70;;;;;;5010870;28;20049;-86
2022/03/12 04:43:42;;;;;;;13.20;6.75;;;4.20;89.70;;;;;;5011290;28;20796;-85
2022/03/12 04:46:08;;;;;;;12.35;6.30;;;4.20;89.90;;;;;;5010991;28;20695;-87
2022/03/12 04:48:34;;;;;;;10.88;6.50;;;4.30;90.00;;;;;;4995739;28;20133;-85
2022/03/12 04:51:00;;;;;;;11.55;6.88;;;4.20;90.10;;;;;;4994594;28;20049;-85
2022/03/12 04:53:27;;;;;;;10.10;6.43;;;4.20;90.10;;;;;;4995400;28;20073;-85
2022/03/12 04:55:54;;;;;;;12.80;6.68;;;4.20;90.10;;;;;;4995083;28;20045;-85
2022/03/12 04:58:20;;;;;;;11.15;6.40;;;4.20;90.20;;;;;;5009884;28;20061;-85
2022/03/12 05:00:46;;;;;;;16.00;7.03;;;4.20;90.30;;;;;;5011847;28;20596;-85
2022/03/12 05:03:15;;;;;;;11.38;6.53;;;4.20;90.40;;;;;;5010889;28;20071;-86
2022/03/12 05:05:43;;;;;;;10.77;6.22;;;4.20;90.50;;;;;;5011194;28;20045;-86
2022/03/12 05:08:11;;;;;;;14.10;6.38;;;4.20;90.60;;;;;;4994741;28;20048;-86
2022/03/12 05:10:37;;;;;;;13.70;6.45;;;4.10;90.70;;;;;;4995212;28;20137;-86
2022/03/12 05:13:04;;;;;;;16.35;6.43;;;4.10;90.70;;;;;;5010434;28;20550;-86
2022/03/12 05:15:36;;;;;;;9.55;6.43;;;4.20;90.70;;;;;;5011472;28;20049;-85
2022/03/12 05:18:05;;;;;;;9.60;6.40;;;4.10;90.60;;;;;;4994750;28;20042;-87
2022/03/12 05:20:30;;;;;;;11.70;6.45;;;4.40;90.70;;;;;;4994424;28;20292;-86
2022/03/12 05:22:57;;;;;;;10.38;6.05;;;4.10;90.60;;;;;;5011184;28;20047;-86
2022/03/12 05:25:23;;;;;;;16.23;6.43;;;4.20;90.50;;;;;;4994683;28;20049;-85
2022/03/12 05:27:51;;;;;;;11.85;6.53;;;4.10;90.40;;;;;;4993966;28;20072;-86
2022/03/12 05:30:18;;;;;;;18.88;6.60;;;4.10;90.50;;;;;;5010597;28;20600;-85
2022/03/12 05:32:44;;;;;;;10.40;6.10;;;4.10;90.60;;;;;;4994683;28;20041;-85
2022/03/12 05:35:10;;;;;;;11.35;6.75;;;4.10;90.80;;;;;;5010215;28;20045;-85
2022/03/12 05:37:38;;;;;;;12.70;6.50;;;4.10;90.80;;;;;;4994666;28;20403;-85
2022/03/12 05:40:07;;;;;;;14.18;6.63;;;4.10;90.80;;;;;;4989948;28;20034;-86
2022/03/12 05:42:34;;;;;;;10.57;6.22;;;4.00;90.90;;;;;;4973312;28;20045;-85
2022/03/12 05:45:07;;;;;;;15.07;6.75;;;4.40;91.00;;;;;;4974718;28;20526;-86
2022/03/12 05:47:36;;;;;;;17.00;5.82;;;3.90;90.90;;;;;;4974440;28;20077;-85
2022/03/12 05:50:03;;;;;;;15.43;6.72;;;3.90;91.00;;;;;;4974592;28;20121;-87
2022/03/12 05:52:28;;;;;;;12.23;7.18;;;3.90;91.10;;;;;;4991433;28;20057;-86
2022/03/12 05:54:54;;;;;;;9.55;5.75;;;3.90;91.30;;;;;;4991064;28;20037;-85
2022/03/12 05:57:20;;;;;;;12.23;6.78;;;4.00;91.40;;;;;;4973224;28;20054;-86
2022/03/12 05:59:49;;;;;;;10.57;6.53;;;3.90;91.40;;;;;;4991365;28;20050;-86
2022/03/12 06:02:16;;;;;;;14.10;6.68;;;4.00;91.60;;;;;;4973475;28;20474;-86
2022/03/12 06:04:42;;;;;;;11.57;6.15;;;4.50;92.00;;;;;;4975743;28;20085;-86
2022/03/12 06:07:09;;;;;;;11.65;6.75;;;4.00;92.10;;;;;;4989800;28;20054;-85
2022/03/12 06:09:35;;;;;;;11.07;6.78;;;5.10;92.70;;;;;;4990684;28;20058;-86
2022/03/12 06:12:02;;;;;;;13.80;6.43;;;4.00;92.40;;;;;;4990214;28;20057;-86
2022/03/12 06:14:30;;;;;;;10.85;6.63;;;4.00;92.40;;;;;;4974577;28;20448;-85
2022/03/12 06:16:56;;;;;;;9.32;5.93;;;4.00;92.50;;;;;;4974035;28;20408;-86
2022/03/12 06:19:21;;;;;;;9.50;6.05;;;4.00;92.70;;;;;;4973764;28;20101;-86
2022/03/12 06:21:48;;;;;;;14.55;6.65;;;4.00;92.80;;;;;;4973519;28;20353;-85
2022/03/12 06:24:14;;;;;;;12.90;6.30;;;4.10;93.00;;;;;;4973842;28;20053;-86
2022/03/12 06:26:43;;;;;;;15.82;7.18;;;4.10;93.10;;;;;;4973992;28;20445;-85
2022/03/12 06:29:13;;;;;;;11.75;6.38;;;4.10;93.30;;;;;;4972124;28;20061;-86
2022/03/12 06:31:41;;;;;;;13.57;6.97;;;4.10;93.40;;;;;;4990698;28;20178;-86
2022/03/12 06:34:10;;;;;;;13.18;6.72;;;4.10;93.60;;;;;;4973796;28;20052;-86
2022/03/12 06:36:37;;;;;;;23.45;7.03;;;4.20;93.90;;;;;;4973667;28;20042;-85
2022/03/12 06:39:05;;;;;;;13.40;6.97;;;4.20;94.00;;;;;;4973672;28;20045;-86
2022/03/12 06:41:35;;;;;;;11.52;6.07;;;4.20;94.10;;;;;;4989748;28;20053;-86
2022/03/12 06:44:02;;;;;;;11.45;6.32;;;4.20;94.10;;;;;;4988546;28;20477;-86
2022/03/12 06:46:30;;;;;;;9.80;6.07;;;4.20;94.10;;;;;;4974140;28;20049;-86
2022/03/12 06:48:56;;;;;;;11.07;6.30;;;4.20;94.10;;;;;;4974281;28;20509;-86
2022/03/12 06:51:22;;;;;;;10.82;6.30;;;4.20;94.20;;;;;;4980628;28;20080;-86
2022/03/12 06:53:48;;;;;;;11.68;6.70;;;4.70;94.30;;;;;;5012126;28;20421;-85
2022/03/12 06:56:14;;;;;;;17.17;6.32;;;5.00;94.40;;;;;;5012548;28;20416;-85
2022/03/12 06:58:39;;;;;;;11.48;6.57;;;4.30;94.10;;;;;;4996441;28;20061;-85
2022/03/12 07:01:05;;;;;;;12.02;6.95;;;4.30;94.10;;;;;;5013345;28;20095;-85
2022/03/12 07:03:31;;;;;;;12.00;5.80;;;4.30;94.10;;;;;;5013313;28;20128;-85
2022/03/12 07:05:57;;;;;;;10.50;6.00;;;4.40;94.50;;;;;;4996873;28;20045;-86
2022/03/12 07:08:23;;;;;;;12.43;6.82;;;5.30;94.70;;;;;;5013476;28;20049;-86
2022/03/12 07:10:49;;;;;;;11.68;6.05;;;4.40;94.50;;;;;;5013330;28;20096;-87
2022/03/12 07:13:16;;;;;;;10.10;6.47;;;4.50;94.40;;;;;;4996397;28;20043;-88
2022/03/12 07:15:42;;;;;;;19.77;7.55;;;4.60;94.40;;;;;;5013181;28;20045;-89
2022/03/12 07:18:09;;;;;;;13.57;6.90;;;4.60;94.40;;;;;;5004818;28;20490;-89
2022/03/12 07:20:34;;;;;;;10.52;6.05;;;4.70;94.20;;;;;;5013641;28;20515;-88
2022/03/12 07:23:01;;;;;;;12.32;6.65;;;4.70;94.00;;;;;;5012805;28;20077;-87
2022/03/12 07:25:27;;;;;;;12.65;6.50;;;4.70;93.90;;;;;;4995073;28;20041;-87
2022/03/12 07:27:54;;;;;;;10.18;6.22;;;5.10;94.10;;;;;;5010470;28;20866;-87
2022/03/12 07:30:21;;;;;;;10.02;6.22;;;4.70;94.00;;;;;;4995553;28;20393;-87
2022/03/12 07:32:48;;;;;;;13.40;6.80;;;4.70;94.10;;;;;;5005826;28;20370;-87
2022/03/12 07:35:15;;;;;;;13.10;6.45;;;5.70;94.40;;;;;;5006237;28;20081;-87
2022/03/12 07:37:42;;;;;;;14.57;6.20;;;4.60;94.30;;;;;;4989879;28;20037;-88
2022/03/12 07:40:09;;;;;;;12.10;6.40;;;4.60;94.60;;;;;;5006686;28;20053;-86
2022/03/12 07:42:35;;;;;;;17.27;6.55;;;4.60;94.80;;;;;;4991948;28;20050;-86
2022/03/12 07:45:02;;;;;;;12.52;6.13;;;4.60;95.00;;;;;;4993347;28;20061;-85
2022/03/12 07:47:28;;;;;;;17.23;6.85;;;4.60;95.20;;;;;;4975924;28;20141;-88
2022/03/12 07:49:54;;;;;;;11.38;7.07;;;4.60;95.30;;;;;;5001283;28;20159;-86
2022/03/12 07:52:19;;;;;;;13.10;6.45;;;4.60;95.40;;;;;;5007823;28;20115;-87
2022/03/12 07:54:45;;;;;;;10.77;5.93;;;5.90;95.80;;;;;;4995972;28;20038;-88
2022/03/12 07:57:11;;;;;;;12.25;7.68;;;4.70;95.50;;;;;;4999725;28;20069;-88
2022/03/12 07:59:37;;;;;;;9.10;5.90;;;4.90;95.80;;;;;;5002047;28;20060;-86
2022/03/12 08:02:03;;;;;;;12.80;6.25;;;5.00;95.80;;;;;;5013255;28;20041;-87
2022/03/12 08:04:33;;;;;;;11.85;7.07;;;5.10;95.60;;;;;;5031922;28;20053;-86
2022/03/12 08:07:02;;;;;;;27.25;7.18;;;5.20;95.90;;;;;;5032006;28;20119;-85
2022/03/12 08:09:31;;;;;;;12.73;6.53;;;5.30;96.00;;;;;;5014739;28;20101;-85
2022/03/12 08:11:57;;;;;;;13.48;6.55;;;5.50;95.90;;;;;;5031393;28;20049;-85
2022/03/12 08:14:24;;;;;;;12.93;6.80;;;5.60;95.50;;;;;;5030501;28;20084;-86
2022/03/12 08:16:52;;;;;;;13.98;7.47;;;6.70;95.80;;;;;;4998422;28;20045;-86
2022/03/12 08:19:18;;;;;;;15.82;6.93;;;5.80;95.60;;;;;;4976179;28;20060;-84
2022/03/12 08:21:46;;;;;;;15.73;6.93;;;5.80;95.50;;;;;;4975261;28;20045;-85
2022/03/12 08:24:15;;;;;;;10.20;6.38;;;5.90;95.30;;;;;;4975824;28;20084;-86
2022/03/12 08:26:42;;;;;;;14.48;6.80;;;6.40;95.40;;;;;;4991936;28;20525;-86
2022/03/12 08:29:10;;;;;;;14.70;6.60;;;6.10;95.40;;;;;;4990909;28;20057;-85
2022/03/12 08:31:37;;;;;;;15.18;6.93;;;6.20;95.10;;;;;;4976461;28;20042;-86
2022/03/12 08:34:03;;;;;;;14.88;7.03;;;6.30;95.00;;;;;;4975751;28;20046;-86
2022/03/12 08:36:28;;;;;;;16.35;6.90;;;6.40;95.10;;;;;;4975593;28;20053;-86
2022/03/12 08:38:54;;;;;;;11.15;7.05;;;6.80;95.00;;;;;;4991679;28;20107;-85
2022/03/12 08:41:21;;;;;;;14.55;6.32;;;7.40;95.10;;;;;;4991723;28;20045;-86
2022/03/12 08:43:48;;;;;;;15.35;6.88;;;6.70;94.70;;;;;;4974948;28;20041;-85
2022/03/12 08:46:14;;;;;;;14.60;7.13;;;6.80;94.60;;;;;;4993333;28;20037;-85
2022/03/12 08:48:40;;;;;;;15.50;7.30;;;6.80;94.30;;;;;;5005790;28;20117;-85
2022/03/12 08:51:06;;;;;;;13.82;6.88;;;7.00;94.30;;;;;;5013675;28;20626;-87
2022/03/12 08:53:33;;;;;;;14.13;8.05;;;7.10;94.10;;;;;;5015077;28;20070;-86
2022/03/12 08:56:00;;;;;;;10.75;6.43;;;7.20;93.90;;;;;;5030732;28;20049;-86
2022/03/12 08:58:27;;;;;;;11.60;7.07;;;7.30;93.50;;;;;;5013499;28;20563;-85
2022/03/12 09:00:53;;;;;;;16.13;7.30;;;8.00;93.70;;;;;;5014188;28;20492;-86
2022/03/12 09:03:21;;;;;;;14.93;7.55;;;7.60;93.70;;;;;;5031079;28;20134;-85
2022/03/12 09:05:48;;;;;;;11.20;6.70;;;7.70;93.70;;;;;;5008012;28;20057;-85
2022/03/12 09:08:15;;;;;;;11.57;7.40;;;7.80;93.80;;;;;;4991140;28;20042;-86
2022/03/12 09:10:42;;;;;;;11.13;6.43;;;7.90;93.90;;;;;;4974813;28;20413;-85
2022/03/12 09:13:13;;;;;;;12.23;7.13;;;7.90;93.90;;;;;;4974520;28;20053;-86
2022/03/12 09:15:41;;;;;;;10.07;6.82;;;8.80;93.30;;;;;;4975858;28;20073;-85
2022/03/12 09:18:08;;;;;;;12.40;6.40;;;9.00;93.60;;;;;;4990083;28;20046;-86
2022/03/12 09:20:46;;;;;;;14.93;7.30;;;8.40;93.40;;;;;;4976080;28;20104;-86
2022/03/12 09:23:14;;;;;;;12.68;7.60;;;8.30;93.70;;;;;;4991744;28;20531;-87
2022/03/12 09:25:40;;;;;;;11.07;7.30;;;8.30;93.70;;;;;;4974052;28;20038;-86
2022/03/12 09:28:06;;;;;;;13.95;7.28;;;9.30;94.00;;;;;;4991190;28;20132;-85
2022/03/12 09:30:32;;;;;;;12.32;7.45;;;8.50;93.70;;;;;;4975317;28;20136;-85
2022/03/12 09:32:58;;;;;;;22.67;7.78;;;8.60;93.80;;;;;;4974210;28;20136;-84
2022/03/12 09:35:24;;;;;;;13.02;7.25;;;8.70;94.10;;;;;;4991516;28;20053;-86
2022/03/12 09:37:49;;;;;;;14.27;7.32;;;9.60;94.30;;;;;;4974790;28;20077;-85
2022/03/12 09:40:18;;;;;;;15.38;7.57;;;8.90;94.20;;;;;;4973508;28;20433;-85
2022/03/12 09:42:44;;;;;;;13.20;7.32;;;8.90;94.40;;;;;;4990471;28;20501;-85
2022/03/12 09:45:11;;;;;;;10.48;7.32;;;9.60;94.60;;;;;;4991101;28;20038;-84
2022/03/12 09:47:37;;;;;;;13.77;7.53;;;9.20;94.60;;;;;;4991187;28;20498;-85
2022/03/12 09:50:04;;;;;;;12.82;7.22;;;9.30;94.80;;;;;;4973731;28;20049;-86
2022/03/12 09:52:30;;;;;;;14.95;7.07;;;9.40;94.90;;;;;;4974684;28;20049;-85
2022/03/12 09:54:56;;;;;;;12.02;7.57;;;9.60;94.80;;;;;;4974403;28;20038;-86
2022/03/12 09:57:22;;;;;;;14.05;7.60;;;9.70;95.10;;;;;;4970300;28;20593;-86
2022/03/12 09:59:48;;;;;;;16.00;8.10;;;9.80;95.20;;;;;;4971437;28;20113;-85
2022/03/12 10:02:14;;;;;;;14.32;7.60;;;10.50;95.60;;;;;;4954718;28;20049;-85
2022/03/12 10:04:40;;;;;;;15.93;8.45;;;10.90;96.20;;;;;;4972096;28;20164;-85
2022/03/12 10:07:08;;;;;;;12.70;7.88;;;10.10;96.80;;;;;;4953862;28;20839;-85
2022/03/12 10:09:34;;;;;;;12.63;8.00;;;11.00;97.20;;;;;;4955922;28;20050;-85
2022/03/12 10:12:01;;;;;;;13.65;8.07;;;10.40;97.70;;;;;;4954651;28;20501;-85
2022/03/12 10:14:27;;;;;;;12.82;7.32;;;11.20;98.40;;;;;;4970251;28;20046;-85
2022/03/12 10:16:53;;;;;;;13.27;8.63;;;10.80;99.10;;;;;;4971517;28;20061;-85
2022/03/12 10:19:20;;;;;;;12.10;7.57;;;10.70;99.60;;;;;;4954446;28;20547;-84
2022/03/12 10:21:47;;;;;;;14.52;8.52;;;10.80;99.90;;;;;;4970859;28;20494;-85
2022/03/12 10:24:13;;;;;;;12.85;8.07;;;11.50;99.90;;;;;;4954301;28;20046;-85
2022/03/12 10:26:40;;;;;;;11.88;7.97;;;11.60;99.90;;;;;;4954692;28;20050;-84
2022/03/12 10:29:06;;;;;;;13.25;7.57;;;11.40;99.90;;;;;;4955457;28;20057;-85
2022/03/12 10:31:32;;;;;;;14.10;8.70;;;11.10;99.90;;;;;;4975019;28;20046;-85
2022/03/12 10:34:24;;;;;;;11.85;7.85;;;11.20;99.90;;;;;;4975455;28;20042;-84
2022/03/12 10:36:51;;;;;;;12.27;7.88;;;11.20;99.90;;;;;;4957989;28;20042;-84
2022/03/12 10:39:31;;;;;;;13.73;7.97;;;11.30;99.90;;;;;;4974903;28;20042;-87
2022/03/12 10:42:07;;;;;;;14.35;8.13;;;11.30;99.90;;;;;;4958111;28;20054;-84
2022/03/12 10:44:36;;;;;;;14.13;8.27;;;11.30;99.90;;;;;;4959047;28;20046;-85
2022/03/12 10:47:03;;;;;;;12.80;8.05;;;11.40;99.90;;;;;;4959238;28;20108;-85
2022/03/12 10:49:30;;;;;;;13.35;8.05;;;11.50;99.90;;;;;;4958145;28;20137;-85
2022/03/12 10:51:58;;;;;;;12.85;8.35;;;12.20;99.90;;;;;;4975298;28;20061;-85
2022/03/12 10:54:24;;;;;;;12.00;7.97;;;11.50;99.90;;;;;;4958328;28;20086;-85
2022/03/12 10:56:52;;;;;;;12.13;7.75;;;11.80;99.90;;;;;;4973982;28;20042;-85
2022/03/12 10:59:21;;;;;;;18.73;8.63;;;11.70;99.90;;;;;;4976312;28;20198;-85
2022/03/12 11:01:48;;;;;;;13.80;9.05;;;12.00;99.90;;;;;;4978227;28;20072;-83
2022/03/12 11:04:18;;;;;;;12.52;8.75;;;11.80;99.90;;;;;;4993298;28;20041;-84
2022/03/12 11:06:45;;;;;;;12.82;8.45;;;11.90;99.90;;;;;;4997455;28;20516;-84
2022/03/12 11:09:16;;;;;;;12.45;7.80;;;12.00;99.90;;;;;;5013317;28;20045;-83
2022/03/12 11:11:43;;;;;;;15.38;8.13;;;12.00;99.90;;;;;;5013025;28;20084;-84
2022/03/12 11:14:19;;;;;;;12.95;8.45;;;12.10;99.90;;;;;;5012850;28;20393;-85
2022/03/12 11:16:52;;;;;;;15.30;8.32;;;12.30;99.90;;;;;;4997857;28;20041;-84
2022/03/12 11:19:37;;;;;;;15.33;8.57;;;12.20;99.90;;;;;;4996427;28;20053;-84
2022/03/12 11:22:10;;;;;;;12.90;8.43;;;12.40;99.90;;;;;;4997241;28;20302;-85
2022/03/12 11:24:46;;;;;;;14.93;8.95;;;12.20;99.90;;;;;;4981336;28;20041;-84
2022/03/12 11:27:19;;;;;;;13.93;8.30;;;12.30;99.90;;;;;;4995694;28;20041;-84
2022/03/12 11:29:54;;;;;;;;;;;12.40;99.90;;;;;;5014421;28;20538;-85
2022/03/12 11:32:20;;;;;;;12.48;8.05;;;12.50;99.90;;;;;;4996082;28;20011;-83
2022/03/12 11:34:45;;;;;;;19.58;8.07;;;12.50;99.90;;;;;;4997330;28;20124;-83
2022/03/12 11:37:15;;;;;;;28.98;9.95;;;12.60;99.90;;;;;;4996313;28;20481;-83
2022/03/12 11:39:44;;;;;;;16.40;8.68;;;12.70;99.90;;;;;;5012510;28;20049;-83
2022/03/12 11:42:11;;;;;;;16.90;8.90;;;12.70;99.90;;;;;;4992065;28;20050;-83
2022/03/12 11:44:40;;;;;;;17.95;8.95;;;12.70;99.90;;;;;;4993788;28;20046;-83
2022/03/12 11:47:07;;;;;;;15.60;8.82;;;13.00;99.90;;;;;;4975535;28;20038;-84
2022/03/12 11:49:34;;;;;;;21.67;14.73;;;12.70;99.90;;;;;;4977308;28;20956;-83
2022/03/12 11:52:00;;;;;;;13.85;8.18;;;12.80;99.90;;;;;;4976389;28;20041;-84
2022/03/12 11:54:26;;;;;;;14.15;8.40;;;12.90;99.90;;;;;;4975745;28;20101;-84
2022/03/12 11:56:52;;;;;;;11.07;7.95;;;13.10;99.90;;;;;;4976763;28;20046;-84
2022/03/12 11:59:18;;;;;;;14.57;8.32;;;13.00;99.90;;;;;;4991732;28;20058;-84
2022/03/12 12:02:01;;;;;;;13.15;8.48;;;13.70;99.90;;;;;;4976937;28;20089;-84
2022/03/12 12:04:29;;;;;;;15.87;8.80;;;13.20;99.90;;;;;;4976978;28;20050;-84
2022/03/12 12:06:55;;;;;;;13.07;7.85;;;13.20;99.90;;;;;;4975760;28;20328;-84
2022/03/12 12:09:21;;;;;;;11.85;7.53;;;13.30;99.90;;;;;;4976625;28;20100;-85
2022/03/12 12:11:46;;;;;;;14.80;7.93;;;13.30;99.90;;;;;;4992382;28;20050;-84
2022/03/12 12:14:12;;;;;;;12.05;7.63;;;13.30;99.90;;;;;;4991424;28;20041;-84
2022/03/12 12:16:38;;;;;;;14.95;8.05;;;13.30;99.90;;;;;;4976980;28;20128;-85
2022/03/12 12:19:04;;;;;;;14.27;7.25;;;13.40;99.90;;;;;;4992129;28;20116;-85
2022/03/12 12:21:29;;;;;;;13.95;7.68;;;13.50;99.90;;;;;;4991713;28;20088;-85
2022/03/12 12:23:59;;;;;;;10.70;7.28;;;13.60;99.90;;;;;;4992281;28;20046;-85
2022/03/12 12:26:24;;;;;;;14.52;6.88;;;13.70;99.90;;;;;;5004626;28;20045;-84
2022/03/12 12:28:52;;;;;;;11.10;7.00;;;13.80;99.90;;;;;;5003039;28;20045;-84
2022/03/12 12:31:26;;;;;;;11.65;6.45;;;13.90;99.90;;;;;;5002832;28;20056;-84
2022/03/12 12:33:55;;;;;;;12.20;7.47;;;13.80;99.90;;;;;;4989767;28;20048;-84
2022/03/12 12:36:21;;;;;;;11.00;7.50;;;13.90;99.90;;;;;;4987930;28;20053;-84
2022/03/12 12:39:05;;;;;;;13.13;7.65;;;13.90;99.90;;;;;;5004473;28;20037;-85
2022/03/12 12:41:58;;;;;;;12.23;7.10;;;13.90;99.90;;;;;;4991128;28;20411;-84
2022/03/12 12:44:42;;;;;;;13.10;7.20;;;13.90;99.90;;;;;;4995232;28;20045;-83
2022/03/12 12:47:15;;;;;;;14.48;7.10;;;13.90;99.90;;;;;;4995676;28;20041;-81